Share

Kyoto, Japan

Kyoto (IKYOTOKY2) Elev 115 ft | 34.93 °N, 135.76 °E | Change Station

Current weather conditions updated 7 minutes ago

Light Rain
Light Rain
58.3 °F
Feels Like 58.3 °F
N
3.6
Wind Variable Wind from North
Sunrise 5:19 AM
Sunset 6:33 PM
Moon Waning Gibbous

Tomorrow is forecast to be Warmer than today. Cloudy, periods of rain.

Pressure 30.06 in
Visibility 6.2 miles
Clouds Few 2000 ft
Scattered Clouds 3000 ft
Mostly Cloudy 6000 ft
Dew Point 52 °F
Humidity 78%
Rainfall -999.00 in
Snow Depth Not available.
UV 0.0 out of 16
Pollen Not available.
Air Quality Not available.
Flu Activity Not available.
METAR RJOO 200700Z 05013KT 9999 -RA FEW020 SCT030 BKN060 14/08 Q1018 RMK 1CU020 3CU030 5SC060 A3006

More Conditions Fewer Conditions

Pressure 30.06 in
Visibility 6.2 miles
Clouds Few 2000 ft
Scattered Clouds 3000 ft
Mostly Cloudy 6000 ft
Dew Point 52 °F
Humidity 78%
Rainfall -999.00 in
Snow Depth Not available.
UV 0.0 out of 16
Pollen Not available.
Air Quality Not available.
Flu Activity Not available.
METAR RJOO 200700Z 05013KT 9999 -RA FEW020 SCT030 BKN060 14/08 Q1018 RMK 1CU020 3CU030 5SC060 A3006

More Conditions Fewer Conditions

10-Day Weather Forecast

Almanac

Astronomy

Apr. 20, 2014 Rise Set
Actual Time 5:19 AM JST 6:33 PM JST
Civil Twilight 4:53 AM JST 6:59 PM JST
Nautical Twilight 4:21 AM JST 7:30 PM JST
Astronomical Twilight 3:49 AM JST 8:03 PM JST
Moon 11:28 PM JST 9:05 AM JST
Length of Visible Light 14h 06m
Length of Day
13h 13m
Tomorrow will be 2m 3s longer.
Waning Gibbous, 72% of the Moon is Illuminated
Today
Waning Gibbous
Apr 22
Last Quarter
Apr 29
New
May 6
First Quarter
May 14
Full

Yesterday's Extremes

Country Highs Country Lows

Community

  • Sunny day at the coast-Cape Arago Lighthouse
    Sunny day at the coast-Cape Arago Lighthouse
  • Cherry Blossoms
    Cherry Blossoms
  • White-Crowned Sparrow
    White-Crowned Sparrow
  • New Day
    New Day
  • Happy Easter!
    Happy Easter!

WunderPhotos

Upload Photos

1,703,084 photos uploaded!

WunderBlogs® & News

Nearby

Snow Depth

Not available.

Coastal Water Temperatures

Place Temperature
No Stations Reporting

Earthquake Activity

City Distance Mag. Time & Date
No recent earthquake activity has been reported nearby.
Minimum magnitude displayed is 2.5.

Nearby Weather Stations

Station Location Temp. Dew Point Humidity Wind Precip. Elev Updated Type
Kyoto, Kyoto 58.3 °F 52 °F 78% North  at  3.6 mph 0.01 in / hr 115 ft 4:29 PM JST Normal
Toyonaka 58.1 °F 49 °F 71% SSE  at  2.0 mph 0.00 in / hr 10 ft 4:37 PM JST Rapid Fire

Show More Stations Show Fewer Stations

What do you think?

We're not finished. Please let us know what you like, what you don't like, and what you are still missing.